Time;durP1;ratioP1;P1;durP2;ratioP2;P2;SDS_P1;SDS_P2;PMS_P1;PMS_P2;Temp;Humidity;BMP_temperature;BMP_pressure;BME280_temperature;BME280_humidity;BME280_pressure;Samples;Min_cycle;Max_cycle;Signal;HPM_P1;HPM_P2
2022/12/19 00:00:50;;;;;;;;;128.33;92.00;;;;;-1.33;100.00;101906.72;6283412;20;3674501;-57
2022/12/19 00:03:19;;;;;;;;;111.00;85.67;;;;;-1.25;100.00;101915.69;6281991;20;3680451;-56
2022/12/19 00:05:49;;;;;;;;;141.33;91.67;;;;;-1.24;100.00;101920.09;6284914;20;3687736;-56
2022/12/19 00:08:19;;;;;;;;;121.00;85.33;;;;;-1.51;100.00;101914.22;6280856;20;3693051;-56
2022/12/19 00:10:59;;;;;;;;;120.67;89.33;;;;;-1.25;100.00;101923.59;6283871;20;3704426;-55
2022/12/19 00:13:31;;;;;;;;;126.33;87.67;;;;;-1.34;100.00;101920.78;6281254;20;3698194;-55
2022/12/19 00:16:22;;;;;;;;;154.33;85.67;;;;;-1.93;100.00;101922.81;6279512;20;3687830;-57
2022/12/19 00:18:57;;;;;;;;;142.75;102.75;;;;;-1.48;100.00;101916.91;6280779;20;3713897;-56
2022/12/19 00:21:31;;;;;;;;;130.00;89.33;;;;;-1.58;100.00;101927.25;6280301;20;3696142;-57
2022/12/19 00:24:06;;;;;;;;;141.33;97.00;;;;;-1.42;100.00;101930.22;6279736;20;3704452;-55
2022/12/19 00:26:49;;;;;;;;;146.00;101.00;;;;;-1.34;100.00;101920.78;6281139;20;3710665;-57
2022/12/19 00:29:19;;;;;;;;;156.33;98.33;;;;;-1.56;100.00;101930.78;6280834;20;3695198;-56
2022/12/19 00:31:49;;;;;;;;;134.67;98.33;;;;;-1.56;100.00;101929.91;6280449;20;3706520;-56
2022/12/19 00:34:18;;;;;;;;;145.00;90.67;;;;;-1.83;100.00;101924.84;6284501;20;3712806;-56
2022/12/19 00:36:48;;;;;;;;;126.67;85.33;;;;;-1.91;100.00;101931.66;6282873;20;3696127;-55
2022/12/19 00:39:18;;;;;;;;;127.00;92.00;;;;;-2.11;100.00;101923.25;6281063;20;3692964;-56
2022/12/19 00:41:47;;;;;;;;;109.00;70.67;;;;;-1.76;100.00;101929.44;6282106;20;3690916;-57
2022/12/19 00:44:17;;;;;;;;;117.67;81.67;;;;;-1.53;100.00;101929.06;6283089;20;3691044;-56
2022/12/19 00:46:47;;;;;;;;;125.00;89.00;;;;;-1.40;100.00;101932.03;6278843;20;3699245;-56
2022/12/19 00:49:21;;;;;;;;;127.67;89.33;;;;;-1.85;100.00;101937.06;6281802;20;3688817;-54
2022/12/19 00:51:51;;;;;;;;;139.33;90.67;;;;;-1.92;100.00;101935.13;6281791;20;3688879;-55
2022/12/19 00:54:20;;;;;;;;;145.33;109.67;;;;;-1.78;100.00;101934.63;6278702;20;3729429;-55
2022/12/19 00:56:51;;;;;;;;;136.00;88.67;;;;;-1.84;100.00;101929.22;6281906;20;3693511;-54
2022/12/19 00:59:20;;;;;;;;;129.00;85.67;;;;;-1.73;100.00;101928.59;6279633;20;3694031;-53
2022/12/19 01:01:55;;;;;;;;;134.67;87.67;;;;;-1.62;100.00;101922.75;6283811;20;3685700;-55
2022/12/19 01:04:26;;;;;;;;;121.67;83.33;;;;;-1.93;100.00;101914.94;6283013;20;3698307;-56
2022/12/19 01:06:58;;;;;;;;;119.67;86.33;;;;;-1.92;100.00;101925.50;6279764;20;3698209;-56
2022/12/19 01:09:34;;;;;;;;;115.67;76.33;;;;;-2.14;100.00;101918.78;6279418;20;3697178;-55
2022/12/19 01:14:55;;;;;;;;;128.00;83.33;;;;;-1.77;100.00;101915.34;6276033;20;3703533;-56
2022/12/19 01:17:34;;;;;;;;;110.33;80.67;;;;;-1.77;100.00;101919.72;6277497;20;3687748;-54
2022/12/19 01:20:18;;;;;;;;;114.33;75.33;;;;;-1.70;100.00;101915.50;6278723;20;3689829;-57
2022/12/19 01:22:53;;;;;;;;;128.33;90.00;;;;;-1.47;100.00;101905.53;6283549;20;3694039;-55
2022/12/19 01:25:23;;;;;;;;;109.67;76.33;;;;;-1.61;100.00;101908.69;6281677;20;3683590;-54
2022/12/19 01:27:55;;;;;;;;;116.00;91.67;;;;;-1.46;100.00;101909.94;6282532;20;3682659;-57
2022/12/19 01:30:26;;;;;;;;;111.00;76.67;;;;;-1.52;100.00;101900.16;6282334;20;3691129;-55
2022/12/19 01:33:00;;;;;;;;;109.67;79.67;;;;;-1.46;100.00;101899.41;6281641;20;3687776;-55
2022/12/19 01:35:29;;;;;;;;;106.67;75.67;;;;;-1.39;100.00;101896.06;6277729;20;3689849;-55
2022/12/19 01:37:58;;;;;;;;;108.33;76.67;;;;;-1.64;100.00;101899.84;6278435;20;3699247;-57
2022/12/19 01:40:37;;;;;;;;;108.33;75.00;;;;;-1.28;100.00;101888.41;6282034;20;3688953;-56
2022/12/19 01:43:13;;;;;;;;;86.33;63.67;;;;;-1.31;100.00;101889.22;6279443;20;3644056;-54
2022/12/19 01:45:45;;;;;;;;;105.00;75.00;;;;;-1.61;100.00;101890.28;6310209;20;3668057;-57
2022/12/19 01:48:43;;;;;;;;;106.00;77.00;;;;;-1.72;100.00;101889.13;6277633;20;3688008;-56
2022/12/19 01:51:22;;;;;;;;;114.00;77.00;;;;;-1.50;100.00;101877.38;6275372;20;3703351;-56
2022/12/19 01:54:00;;;;;;;;;107.67;76.33;;;;;-1.53;100.00;101876.41;6278741;20;3673480;-54
2022/12/19 01:56:36;;;;;;;;;99.00;70.67;;;;;-1.40;100.00;101874.06;6309949;20;3658587;-55
2022/12/19 01:59:18;;;;;;;;;107.67;76.00;;;;;-1.35;100.00;101882.09;6310841;20;3692075;-55
2022/12/19 02:01:54;;;;;;;;;102.33;72.00;;;;;-1.31;100.00;101862.88;6276953;20;3673176;-55
2022/12/19 02:04:27;;;;;;;;;112.00;79.33;;;;;-1.70;100.00;101873.38;6276299;20;3699357;-53
2022/12/19 02:07:04;;;;;;;;;110.00;75.33;;;;;-1.25;100.00;101870.00;6277158;20;3675273;-52
2022/12/19 02:09:48;;;;;;;;;105.33;75.67;;;;;-1.44;100.00;101871.34;6274341;20;3677394;-54
2022/12/19 02:12:32;;;;;;;;;106.75;77.00;;;;;-1.57;100.00;101873.69;6280312;20;3705605;-55
2022/12/19 02:15:04;;;;;;;;;111.00;74.50;;;;;-1.62;100.00;101872.69;6308597;20;3604456;-55
2022/12/19 02:17:57;;;;;;;;;126.67;87.00;;;;;-1.34;100.00;101862.81;6307819;20;3680525;-52
2022/12/19 02:21:17;;;;;;;;;104.67;76.33;;;;;-1.39;100.00;101859.19;6278392;20;3689856;-57
2022/12/19 02:23:52;;;;;;;;;112.00;79.00;;;;;-1.55;100.00;101853.56;6281392;20;3695113;-55
2022/12/19 02:27:00;;;;;;;;;108.33;73.67;;;;;-1.31;100.00;101851.44;6282278;20;3681606;-55
2022/12/19 02:30:11;;;;;;;;;111.00;80.67;;;;;-1.13;100.00;101852.72;6277586;20;3703371;-56
2022/12/19 02:33:03;;;;;;;;;109.33;78.33;;;;;-1.04;100.00;101848.50;6274164;20;3693080;-52
2022/12/19 02:35:55;;;;;;;;;113.00;79.67;;;;;-1.05;100.00;101850.25;6276287;20;3698570;-55
2022/12/19 02:39:09;;;;;;;;;105.67;79.67;;;;;-1.00;100.00;101848.59;6274581;20;3688854;-55
2022/12/19 02:41:56;;;;;;;;;104.67;74.67;;;;;-1.30;100.00;101840.03;6278647;20;3691918;-53
2022/12/19 02:44:48;;;;;;;;;107.00;74.67;;;;;-1.24;100.00;101845.44;6310141;20;3692989;-55
2022/12/19 02:47:21;;;;;;;;;111.33;80.67;;;;;-1.10;100.00;101841.34;6277165;20;3695083;-54
2022/12/19 02:49:50;;;;;;;;;111.67;79.33;;;;;-1.19;100.00;101847.31;6277777;20;3700250;-54
2022/12/19 02:52:20;;;;;;;;;102.00;74.00;;;;;-1.08;100.00;101857.19;6280512;20;3660773;-53
2022/12/19 02:55:02;;;;;;;;;107.67;75.33;;;;;-1.06;100.00;101858.13;6310078;20;3691966;-54
2022/12/19 02:58:31;;;;;;;;;107.50;77.50;;;;;-1.10;100.00;101854.53;6275347;20;3628364;-56
2022/12/19 03:01:54;;;;;;;;;109.00;75.67;;;;;-0.90;100.00;101849.66;6305873;20;3697223;-56
2022/12/19 03:04:48;;;;;;;;;102.33;72.67;;;;;-0.84;100.00;101860.34;6276545;20;3687892;-56
2022/12/19 03:08:06;;;;;;;;;99.33;68.67;;;;;-0.93;100.00;101865.41;6273016;20;3654436;-54
2022/12/19 03:10:51;;;;;;;;;103.33;73.33;;;;;-1.19;100.00;101873.66;6306567;20;3674334;-55
2022/12/19 03:13:38;;;;;;;;;103.00;76.67;;;;;-1.27;100.00;101872.59;6274157;20;3671126;-55
2022/12/19 03:16:10;;;;;;;;;94.67;65.00;;;;;-0.99;100.00;101871.47;6274456;20;3655520;-55
2022/12/19 03:18:40;;;;;;;;;99.00;74.00;;;;;-0.92;100.00;101859.31;6307949;20;3668390;-53
2022/12/19 03:21:42;;;;;;;;;106.00;72.67;;;;;-0.82;100.00;101857.72;6274474;20;3675249;-55
2022/12/19 03:24:14;;;;;;;;;99.33;71.33;;;;;-0.85;100.00;101857.66;6280645;20;3656572;-55
2022/12/19 03:27:17;;;;;;;;;108.33;73.67;;;;;-0.91;100.00;101861.06;6316160;20;3682538;-52
2022/12/19 03:30:11;;;;;;;;;102.00;74.33;;;;;-1.19;100.00;101854.31;6281430;20;3685788;-56
2022/12/19 03:32:43;;;;;;;;;101.00;75.00;;;;;-1.05;100.00;101849.34;6283730;20;3679442;-50
2022/12/19 03:35:26;;;;;;;;;97.33;72.33;;;;;-1.00;100.00;101842.41;6280432;20;3658692;-55
2022/12/19 03:38:03;;;;;;;;;90.33;71.33;;;;;-0.66;100.00;101838.69;6313034;20;3635719;-54
2022/12/19 03:40:41;;;;;;;;;103.67;74.00;;;;;-0.70;100.00;101835.13;6314254;20;3671636;-55
2022/12/19 03:43:14;;;;;;;;;100.00;72.33;;;;;-0.70;100.00;101832.47;6312678;20;3674200;-53
2022/12/19 03:46:23;;;;;;;;;103.67;76.67;;;;;-1.03;100.00;101831.81;6313079;20;3683579;-54
2022/12/19 03:48:54;;;;;;;;;96.33;69.67;;;;;-0.84;100.00;101826.06;6279815;20;3670182;-55
2022/12/19 03:52:42;;;;;;;;;90.00;65.00;;;;;-0.95;100.00;101830.22;6316625;20;3657630;-55
2022/12/19 03:55:38;;;;;;;;;103.33;74.67;;;;;-0.92;100.00;101848.75;6313179;20;3681509;-54
2022/12/19 03:58:14;;;;;;;;;100.33;78.33;;;;;-1.20;100.00;101850.81;6278697;20;3660840;-55
2022/12/19 04:00:46;;;;;;;;;102.67;74.67;;;;;-0.89;100.00;101857.59;6310558;20;3680567;-55
2022/12/19 04:03:19;;;;;;;;;96.00;70.33;;;;;-0.95;100.00;101848.66;6279256;20;3646289;-55
2022/12/19 04:05:50;;;;;;;;;141.00;108.00;;;;;-0.78;100.00;101854.31;6312360;20;3718021;-55
2022/12/19 04:08:20;;;;;;;;;267.67;225.67;;;;;-0.77;100.00;101851.69;6279013;20;3714829;-55
2022/12/19 04:11:01;;;;;;;;;159.50;122.00;;;;;-0.91;100.00;101851.41;6278909;20;3725350;-56
2022/12/19 04:13:48;;;;;;;;;199.75;160.25;;;;;-0.82;100.00;101855.09;6313837;20;4496057;-55
2022/12/19 04:16:45;;;;;;;;;295.67;258.67;;;;;-0.95;100.00;101848.66;6275681;20;3707705;-54
2022/12/19 04:20:05;;;;;;;;;190.25;150.75;;;;;-0.76;100.00;101852.59;6279130;20;4492964;-56
2022/12/19 04:23:17;;;;;;;;;141.67;97.00;;;;;-0.90;100.00;101855.81;6280650;20;3707632;-57
2022/12/19 04:25:51;;;;;;;;;147.00;112.50;;;;;-0.92;100.00;101854.03;6277827;20;3722373;-54
2022/12/19 04:28:47;;;;;;;;;149.00;112.00;;;;;-1.01;100.00;101848.56;6309739;20;4496159;-56
2022/12/19 04:31:19;;;;;;;;;102.33;80.67;;;;;-0.92;100.00;101848.75;6279442;20;3677401;-52
2022/12/19 04:33:50;;;;;;;;;200.25;170.75;;;;;-0.95;100.00;101851.31;6275210;20;3701393;-56
2022/12/19 04:36:19;;;;;;;;;105.67;74.00;;;;;-0.77;100.00;101851.69;6313637;20;3675272;-56
2022/12/19 04:38:49;;;;;;;;;101.67;72.67;;;;;-0.78;100.00;101860.47;6281423;20;3693135;-54
2022/12/19 04:41:20;;;;;;;;;281.50;197.50;;;;;-0.70;100.00;101861.50;6281751;20;3716011;-55
2022/12/19 04:43:50;;;;;;;;;112.00;78.33;;;;;-1.01;100.00;101846.81;6279759;20;3705592;-54
2022/12/19 04:46:19;;;;;;;;;101.67;74.33;;;;;-0.87;100.00;101847.06;6282643;20;3673240;-56
2022/12/19 04:48:49;;;;;;;;;171.00;128.33;;;;;-0.88;100.00;101854.09;6273313;20;3701351;-52
2022/12/19 04:51:19;;;;;;;;;91.67;66.67;;;;;-0.85;100.00;101858.53;6279932;20;3656731;-56
2022/12/19 04:53:49;;;;;;;;;97.00;70.33;;;;;-1.13;100.00;101847.44;6280140;20;3648231;-55
2022/12/19 04:56:18;;;;;;;;;114.33;98.67;;;;;-0.88;100.00;101858.50;6314441;20;3689952;-55
2022/12/19 04:58:48;;;;;;;;;87.00;62.00;;;;;-0.92;100.00;101857.56;6280260;20;3654529;-57
2022/12/19 05:01:18;;;;;;;;;291.00;204.50;;;;;-0.90;100.00;101855.81;6314935;20;4479483;-55
2022/12/19 05:03:48;;;;;;;;;191.50;135.00;;;;;-0.89;100.00;101856.72;6280432;20;4466947;-56
2022/12/19 05:06:24;;;;;;;;;98.33;70.33;;;;;-0.92;100.00;101846.13;6276403;20;3657574;-54
2022/12/19 05:08:54;;;;;;;;;142.25;117.00;;;;;-0.75;100.00;101863.16;6277702;20;3714937;-56
2022/12/19 05:11:24;;;;;;;;;89.67;63.00;;;;;-0.67;100.00;101865.94;6313942;20;3647136;-56
2022/12/19 05:13:53;;;;;;;;;98.33;70.00;;;;;-0.86;100.00;101862.06;6305781;20;3656521;-57
2022/12/19 05:16:23;;;;;;;;;65.33;45.33;;;;;-0.97;100.00;101863.59;6313246;20;2876378;-54
2022/12/19 05:18:53;;;;;;;;;82.00;62.33;;;;;-0.93;100.00;101868.94;6314138;20;3635667;-57
2022/12/19 05:21:23;;;;;;;;;90.67;65.00;;;;;-0.99;100.00;101881.13;6312431;20;3644392;-57
2022/12/19 05:23:54;;;;;;;;;102.33;74.33;;;;;-0.97;100.00;101874.13;6310443;20;3671204;-56
2022/12/19 05:26:24;;;;;;;;;89.00;63.67;;;;;-1.21;100.00;101872.75;6283417;20;3660720;-55
2022/12/19 05:28:53;;;;;;;;;85.67;63.00;;;;;-1.05;100.00;101875.69;6314547;20;3651400;-53
2022/12/19 05:31:21;;;;;;;;;81.00;54.00;;;;;-1.44;100.00;101884.53;6307712;20;2492508;-57
2022/12/19 05:33:50;;;;;;;;;66.33;46.33;;;;;-1.61;100.00;101882.38;6278171;20;3617086;-57
2022/12/19 05:36:20;;;;;;;;;70.33;49.33;;;;;-1.78;100.00;101883.72;6279932;20;2882726;-53
2022/12/19 05:38:48;;;;;;;;;53.00;47.00;;;;;-1.72;100.00;101881.22;6308679;20;2506583;-54
2022/12/19 05:41:21;;;;;;;;;71.00;51.00;;;;;-1.61;100.00;101879.72;6283371;20;2871526;-56
2022/12/19 05:43:55;;;;;;;;;69.50;54.00;;;;;-1.75;100.00;101867.13;6277870;20;2861735;-52
2022/12/19 05:46:24;;;;;;;;;52.00;38.50;;;;;-2.09;100.00;101875.06;6277478;20;2857597;-53
2022/12/19 05:48:53;;;;;;;;;66.50;52.50;;;;;-1.84;100.00;101879.22;6280000;20;2848241;-53
2022/12/19 05:51:22;;;;;;;;;65.00;48.50;;;;;-1.71;100.00;101882.13;6276425;20;2508578;-53
2022/12/19 05:53:51;;;;;;;;;85.67;59.00;;;;;-1.77;100.00;101888.13;6281965;20;3653556;-57
2022/12/19 05:56:22;;;;;;;;;70.00;50.50;;;;;-2.01;100.00;101876.13;6312544;20;2871156;-55
2022/12/19 05:58:51;;;;;;;;;29.00;20.67;;;;;-2.07;100.00;101873.38;6276493;20;2846234;-55
2022/12/19 06:01:24;;;;;;;;;71.50;51.50;;;;;-2.11;100.00;101874.13;6308328;20;2876367;-50
2022/12/19 06:03:54;;;;;;;;;75.50;58.50;;;;;-1.99;100.00;101871.81;6274973;20;2495139;-53
2022/12/19 06:06:25;;;;;;;;;61.00;41.00;;;;;-2.29;100.00;101863.13;6276241;20;2867042;-54
2022/12/19 06:08:57;;;;;;;;;65.00;43.50;;;;;-1.98;100.00;101873.56;6276711;20;2882799;-54
2022/12/19 06:11:26;;;;;;;;;59.00;46.00;;;;;-1.84;100.00;101880.94;6280890;20;2871120;-54
2022/12/19 06:13:56;;;;;;;;;78.33;51.67;;;;;-1.94;100.00;101885.09;6281062;20;2879447;-53
2022/12/19 06:16:25;;;;;;;;;74.50;57.00;;;;;-1.89;100.00;101882.59;6311248;20;2865983;-54
2022/12/19 06:18:54;;;;;;;;;80.33;56.33;;;;;-2.00;100.00;101891.09;6272420;20;2899347;-55
2022/12/19 06:21:23;;;;;;;;;47.50;42.50;;;;;-1.95;100.00;101903.47;6310568;20;2870151;-56
2022/12/19 06:23:53;;;;;;;;;69.33;47.00;;;;;-2.14;100.00;101903.00;6276492;20;3627458;-56
2022/12/19 06:26:22;;;;;;;;;56.50;44.00;;;;;-2.18;100.00;101895.88;6309612;20;2885691;-56
2022/12/19 06:28:54;;;;;;;;;62.00;42.00;;;;;-2.27;100.00;101907.03;6277962;20;2877756;-55
2022/12/19 06:31:24;;;;;;;;;66.00;45.50;;;;;-2.28;100.00;101914.91;6273113;20;2500405;-53
2022/12/19 06:33:54;;;;;;;;;42.67;39.33;;;;;-2.18;100.00;101903.78;6278205;20;3601750;-51
2022/12/19 06:36:27;;;;;;;;;40.50;36.00;;;;;-2.40;100.00;101901.41;6307259;20;2856632;-54
2022/12/19 06:38:58;;;;;;;;;72.67;50.67;;;;;-2.35;100.00;101902.44;6275566;20;2888873;-53
2022/12/19 06:44:16;;;;;;;;;69.00;48.00;;;;;-2.41;100.00;101903.16;6277840;20;2872184;-55
2022/12/19 06:46:45;;;;;;;;;82.00;58.33;;;;;-2.22;100.00;101902.78;6280440;20;2894124;-54
2022/12/19 06:49:15;;;;;;;;;82.00;60.00;;;;;-2.27;100.00;101904.41;6310571;20;2889908;-51
2022/12/19 06:51:45;;;;;;;;;52.00;32.33;;;;;-2.55;100.00;101892.28;6311894;20;3615947;-54
2022/12/19 06:54:14;;;;;;;;;73.50;55.00;;;;;-2.25;100.00;101899.19;6278537;20;2878466;-54
2022/12/19 06:56:43;;;;;;;;;97.00;71.00;;;;;-2.37;100.00;101904.13;6284035;20;2763834;-53
2022/12/19 06:59:16;;;;;;;;;153.33;112.33;;;;;-2.27;100.00;101900.91;6287864;20;3722279;-54
2022/12/19 07:02:16;;;;;;;;;57.00;42.00;;;;;-2.58;100.00;101894.81;6289933;20;3607613;-51
2022/12/19 07:05:01;;;;;;;;;96.67;68.33;;;;;-2.34;100.00;101904.19;6320546;20;3672267;-55
2022/12/19 07:07:32;;;;;;;;;113.00;79.67;;;;;-2.23;100.00;101897.50;6287965;20;3698300;-55
2022/12/19 07:10:05;;;;;;;;;89.67;64.00;;;;;-2.18;100.00;101895.88;6321440;20;3654553;-56
2022/12/19 07:12:35;;;;;;;;;104.67;74.33;;;;;-2.24;100.00;101898.34;6318456;20;3681489;-56
2022/12/19 07:15:05;;;;;;;;;116.67;85.33;;;;;-2.08;100.00;101899.63;6289080;20;3693996;-55
2022/12/19 07:17:38;;;;;;;;;109.67;76.33;;;;;-2.09;100.00;101906.63;6283709;20;3670075;-52
2022/12/19 07:20:09;;;;;;;;;170.33;139.67;;;;;-2.11;100.00;101907.44;6319518;20;3699239;-55
2022/12/19 07:22:39;;;;;;;;;142.00;107.67;;;;;-2.09;100.00;101906.63;6291688;20;3714878;-54
2022/12/19 07:25:10;;;;;;;;;128.00;96.75;;;;;-2.02;100.00;101898.06;6286435;20;3701443;-54
2022/12/19 07:27:40;;;;;;;;;138.33;114.00;;;;;-2.12;99.92;101890.78;6283755;20;3720219;-55
2022/12/19 07:30:11;;;;;;;;;171.33;138.00;;;;;-2.38;99.97;101903.25;6285636;20;3706903;-56
2022/12/19 07:32:40;;;;;;;;;81.00;58.67;;;;;-2.12;100.00;101893.41;6290165;20;2885936;-56
2022/12/19 07:35:10;;;;;;;;;87.67;65.00;;;;;-2.10;99.76;101891.72;6320897;20;2902539;-54
2022/12/19 07:37:39;;;;;;;;;92.67;67.00;;;;;-2.29;99.33;101892.06;6320177;20;3648580;-55
2022/12/19 07:40:13;;;;;;;;;101.33;77.00;;;;;-2.45;100.00;101902.19;6318317;20;3662800;-55
2022/12/19 07:42:43;;;;;;;;;122.67;93.33;;;;;-2.23;100.00;101897.50;6320069;20;3695025;-55
2022/12/19 07:45:12;;;;;;;;;60.50;48.50;;;;;-2.20;99.40;101910.75;6289115;20;2872171;-52
2022/12/19 07:47:42;;;;;;;;;115.00;88.00;;;;;-1.95;99.31;101920.16;6288878;20;3700298;-52
2022/12/19 07:50:12;;;;;;;;;96.33;71.00;;;;;-2.10;98.35;101925.94;6284113;20;3646133;-55
2022/12/19 07:52:44;;;;;;;;;132.00;102.00;;;;;-2.16;98.43;101923.09;6318189;20;3712879;-54
2022/12/19 07:55:12;;;;;;;;;74.00;57.50;;;;;-1.96;98.04;101933.28;6281002;20;2500293;-54
2022/12/19 07:57:42;;;;;;;;;99.00;70.33;;;;;-1.99;97.62;101937.63;6289206;20;3660710;-55
2022/12/19 08:00:12;;;;;;;;;112.00;88.33;;;;;-1.99;98.04;101924.44;6318166;20;3685803;-55
2022/12/19 08:02:41;;;;;;;;;55.00;30.67;;;;;-2.12;97.46;101926.72;6285480;20;3619040;-53
2022/12/19 08:05:11;;;;;;;;;110.00;84.67;;;;;-1.78;97.27;101923.22;6288038;20;3678434;-56
2022/12/19 08:07:41;;;;;;;;;98.00;68.00;;;;;-1.71;96.98;101926.88;6285855;20;3656532;-53
2022/12/19 08:10:13;;;;;;;;;99.33;71.67;;;;;-1.48;96.10;101916.91;6312235;20;3649294;-52
2022/12/19 08:12:43;;;;;;;;;88.00;61.67;;;;;-1.44;95.04;101924.03;6312947;20;3655565;-54
2022/12/19 08:15:12;;;;;;;;;110.67;80.33;;;;;-1.59;96.04;101925.44;6311333;20;3686711;-54
2022/12/19 08:17:42;;;;;;;;;80.67;60.00;;;;;-1.66;96.79;101938.41;6282094;20;3644153;-54
2022/12/19 08:20:12;;;;;;;;;96.33;71.00;;;;;-1.50;96.63;101931.78;6311008;20;2898312;-53
2022/12/19 08:22:41;;;;;;;;;70.67;42.00;;;;;-1.53;96.77;101932.59;6313008;20;2882756;-56
2022/12/19 08:25:12;;;;;;;;;97.33;74.00;;;;;-1.70;97.06;101932.19;6313060;20;3660811;-56
2022/12/19 08:27:41;;;;;;;;;78.00;56.50;;;;;-1.42;96.85;101922.31;6307364;20;2493050;-55
2022/12/19 08:30:12;;;;;;;;;73.00;56.50;;;;;-1.42;96.18;101922.31;6279625;20;2877559;-56
2022/12/19 08:32:43;;;;;;;;;91.00;67.67;;;;;-1.66;96.69;101917.34;6280702;20;3662784;-55
2022/12/19 08:35:11;;;;;;;;;49.50;43.00;;;;;-1.60;97.01;101909.63;6308414;20;2870164;-54
2022/12/19 08:37:39;;;;;;;;;65.00;42.50;;;;;-1.72;96.96;101907.56;6274413;20;2500342;-55
2022/12/19 08:40:10;;;;;;;;;95.67;68.00;;;;;-1.48;97.74;101901.09;6281145;20;3654466;-55
2022/12/19 08:42:40;;;;;;;;;72.00;55.00;;;;;-1.47;97.32;101902.91;6312622;20;2874246;-56
2022/12/19 08:45:10;;;;;;;;;82.33;56.00;;;;;-1.04;96.75;101919.69;6282484;20;2896238;-55
2022/12/19 08:47:39;;;;;;;;;76.00;56.67;;;;;-1.42;96.30;101907.41;6314446;20;2883816;-54
2022/12/19 08:50:10;;;;;;;;;55.33;32.67;;;;;-1.32;95.83;101924.31;6309932;20;2887891;-55
2022/12/19 08:52:38;;;;;;;;;66.00;54.00;;;;;-1.21;95.39;101927.19;6316902;20;2500644;-53
2022/12/19 08:55:06;;;;;;;;;26.50;21.50;;;;;-1.21;94.45;101922.84;6279554;20;2829529;-55
2022/12/19 08:57:36;;;;;;;;;85.33;60.00;;;;;-1.23;94.64;101914.00;6279748;20;2887908;-54
2022/12/19 09:00:08;;;;;;;;;79.67;58.33;;;;;-1.23;95.21;101919.25;6309051;20;2892038;-56
2022/12/19 09:02:38;;;;;;;;;70.33;54.00;;;;;-1.29;95.63;101912.94;6312649;20;2878570;-57
2022/12/19 09:05:08;;;;;;;;;66.50;51.00;;;;;-1.24;96.60;101916.59;6309639;20;2853446;-53
2022/12/19 09:07:57;;;;;;;;;100.33;76.00;;;;;-1.06;96.61;101909.09;6283510;20;3671216;-55
2022/12/19 09:10:27;;;;;;;;;85.67;63.67;;;;;-0.75;95.52;101905.34;6309343;20;3634633;-53
2022/12/19 09:12:56;;;;;;;;;81.00;63.00;;;;;-0.74;95.91;101909.78;6311043;20;2890901;-55
2022/12/19 09:15:26;;;;;;;;;78.00;60.00;;;;;-0.75;95.39;101912.38;6278120;20;2871158;-56
2022/12/19 09:17:56;;;;;;;;;71.67;52.67;;;;;-0.66;95.77;101904.63;6315232;20;2879475;-55
2022/12/19 09:20:25;;;;;;;;;73.00;51.67;;;;;-0.75;94.71;101897.44;6311649;20;2876413;-55
2022/12/19 09:22:55;;;;;;;;;73.00;54.00;;;;;-0.53;94.41;101904.03;6311364;20;2886820;-56
2022/12/19 09:25:24;;;;;;;;;73.00;53.67;;;;;-0.91;94.31;101901.50;6315119;20;3629472;-55
2022/12/19 09:27:54;;;;;;;;;86.00;64.67;;;;;-0.47;94.54;101898.88;6314251;20;3645057;-55
2022/12/19 09:30:43;;;;;;;;;65.50;52.50;;;;;-0.54;93.75;101888.19;6313612;20;2873216;-55
2022/12/19 09:33:12;;;;;;;;;73.33;52.67;;;;;-0.46;94.02;101878.66;6280251;20;2879525;-55
2022/12/19 09:35:50;;;;;;;;;60.00;42.50;;;;;-0.49;94.01;101897.06;6315724;20;2868028;-53
2022/12/19 09:38:20;;;;;;;;;66.00;51.00;;;;;-0.57;94.17;101890.75;6277253;20;2508667;-52
2022/12/19 09:40:57;;;;;;;;;48.00;33.67;;;;;-0.38;93.51;101877.03;6280650;20;3613807;-54
2022/12/19 09:44:17;;;;;;;;;71.50;56.00;;;;;-0.28;93.41;101876.34;6281537;20;2880499;-53
2022/12/19 09:46:55;;;;;;;;;53.50;44.50;;;;;-0.70;93.21;101872.03;6279718;20;2865982;-53
2022/12/19 09:49:44;;;;;;;;;72.33;54.00;;;;;-0.20;93.12;101878.25;6279538;20;3641921;-56
2022/12/19 09:52:37;;;;;;;;;73.33;52.00;;;;;-0.17;92.86;101880.94;6310847;20;3638784;-53
2022/12/19 09:55:38;;;;;;;;;71.33;51.67;;;;;-0.37;92.95;101865.66;6310669;20;2883702;-53
2022/12/19 09:58:31;;;;;;;;;69.00;48.50;;;;;-0.40;93.22;101857.66;6307740;20;2498247;-51
2022/12/19 10:01:25;;;;;;;;;58.33;41.33;;;;;-0.13;92.80;101867.84;6281734;20;2881637;-54
2022/12/19 10:04:10;;;;;;;;;66.00;53.50;;;;;-0.52;93.75;101853.06;6312442;20;2855518;-56
2022/12/19 10:06:40;;;;;;;;;76.33;56.00;;;;;-0.55;93.33;101844.19;6280648;20;2888941;-56
2022/12/19 10:09:35;;;;;;;;;70.50;57.00;;;;;-0.61;94.51;101847.59;6310630;20;2877379;-54
2022/12/19 10:12:51;;;;;;;;;67.00;49.00;;;;;-0.56;95.05;101842.41;6280474;20;2871194;-55
2022/12/19 10:16:10;;;;;;;;;55.67;35.33;;;;;-0.44;95.30;101840.00;6281643;20;2889917;-56
2022/12/19 10:18:55;;;;;;;;;69.00;48.33;;;;;-0.11;95.23;101841.44;6304987;20;2872262;-55
2022/12/19 10:21:43;;;;;;;;;81.67;59.33;;;;;-0.30;94.26;101840.25;6305784;20;3639939;-54
2022/12/19 10:25:26;;;;;;;;;72.50;56.00;;;;;-0.62;94.24;101844.94;6309304;20;2880531;-53
2022/12/19 10:28:38;;;;;;;;;69.00;50.00;;;;;-0.22;94.08;101844.78;6277214;20;2875318;-55
2022/12/19 10:31:29;;;;;;;;;60.00;44.50;;;;;0.16;92.00;101846.31;6277729;20;2865963;-53
2022/12/19 10:34:01;;;;;;;;;62.00;48.00;;;;;0.19;91.45;101852.50;6281258;20;2867981;-56
2022/12/19 10:36:53;;;;;;;;;41.67;38.00;;;;;-0.16;92.19;101846.63;6281625;20;3601286;-55
2022/12/19 10:40:00;;;;;;;;;54.33;44.00;;;;;-0.09;93.00;101850.28;6273308;20;3589988;-54
2022/12/19 10:43:10;;;;;;;;;72.67;52.67;;;;;-0.28;93.49;101844.69;6278895;20;2874217;-55
2022/12/19 10:45:51;;;;;;;;;75.33;52.67;;;;;-0.05;92.99;101844.22;6307743;20;2884612;-51
2022/12/19 10:48:23;;;;;;;;;65.50;47.50;;;;;-0.28;92.72;101849.09;6309752;20;2859654;-54
2022/12/19 10:50:58;;;;;;;;;54.00;45.50;;;;;-0.19;92.48;101845.69;6279388;20;2500276;-53
2022/12/19 10:53:34;;;;;;;;;75.33;54.00;;;;;-0.29;92.62;101850.84;6275052;20;2889853;-54
2022/12/19 10:56:26;;;;;;;;;44.00;33.00;;;;;-0.27;92.74;101832.38;6299590;20;3608709;-54
2022/12/19 10:59:19;;;;;;;;;83.00;60.67;;;;;-0.20;93.45;101828.09;6275490;20;3653497;-55
2022/12/19 11:01:48;;;;;;;;;68.50;52.50;;;;;0.32;93.07;101828.94;6273812;20;2869046;-53
2022/12/19 11:04:32;;;;;;;;;62.00;50.00;;;;;0.61;90.83;101822.31;6277272;20;2491952;-55
2022/12/19 11:07:19;;;;;;;;;68.00;48.00;;;;;0.29;90.94;101820.94;6277030;20;2518279;-54
2022/12/19 11:09:48;;;;;;;;;56.00;47.00;;;;;0.47;90.81;101818.56;6275846;20;2857600;-53
2022/12/19 11:12:37;;;;;;;;;64.50;48.50;;;;;0.06;91.39;101803.00;6276615;20;2872650;-53
2022/12/19 11:15:26;;;;;;;;;66.00;47.00;;;;;-0.12;92.11;101816.78;6276635;20;2883660;-51
2022/12/19 11:18:15;;;;;;;;;34.00;28.00;;;;;-0.02;91.59;101818.72;6307999;20;2856624;-54
2022/12/19 11:21:29;;;;;;;;;63.00;42.00;;;;;0.06;92.18;101821.50;6277499;20;2873226;-55
2022/12/19 11:24:41;;;;;;;;;66.50;52.00;;;;;0.58;92.14;101822.28;6273460;20;2487810;-52
2022/12/19 11:27:45;;;;;;;;;71.33;52.00;;;;;0.41;90.99;101816.72;6274273;20;3638900;-54
2022/12/19 11:30:35;;;;;;;;;70.00;53.00;;;;;0.37;91.21;101811.38;6306297;20;2873411;-52
2022/12/19 11:33:23;;;;;;;;;67.67;50.00;;;;;0.31;90.67;101806.88;6306116;20;2880607;-56
2022/12/19 11:36:00;;;;;;;;;69.67;47.00;;;;;0.29;91.46;101799.81;6308544;20;2881564;-53
2022/12/19 11:38:51;;;;;;;;;60.50;46.00;;;;;0.45;90.81;101793.91;6305493;20;2854475;-55